sensor_id;sensor_type;location;lat;lon;timestamp;P1;durP1;ratioP1;P2;durP2;ratioP2
549;SDS011;20066;48.764;9.176;2023-05-27T00:00:37;16.07;;;6.90;;
549;SDS011;20066;48.764;9.176;2023-05-27T00:03:06;12.43;;;6.10;;
549;SDS011;20066;48.764;9.176;2023-05-27T00:05:34;18.10;;;5.87;;
549;SDS011;20066;48.764;9.176;2023-05-27T00:08:03;13.70;;;5.80;;
549;SDS011;20066;48.764;9.176;2023-05-27T00:10:31;16.47;;;6.17;;
549;SDS011;20066;48.764;9.176;2023-05-27T00:12:59;15.43;;;6.33;;
549;SDS011;20066;48.764;9.176;2023-05-27T00:15:26;12.47;;;5.43;;
549;SDS011;20066;48.764;9.176;2023-05-27T00:17:54;12.87;;;5.73;;
549;SDS011;20066;48.764;9.176;2023-05-27T00:20:23;14.80;;;6.03;;
549;SDS011;20066;48.764;9.176;2023-05-27T00:22:51;13.20;;;5.93;;
549;SDS011;20066;48.764;9.176;2023-05-27T00:25:19;16.07;;;6.30;;
549;SDS011;20066;48.764;9.176;2023-05-27T00:27:47;17.07;;;7.07;;
549;SDS011;20066;48.764;9.176;2023-05-27T00:30:15;14.87;;;6.23;;
549;SDS011;20066;48.764;9.176;2023-05-27T00:32:43;17.40;;;6.67;;
549;SDS011;20066;48.764;9.176;2023-05-27T00:35:11;11.77;;;6.00;;
549;SDS011;20066;48.764;9.176;2023-05-27T00:37:40;9.53;;;4.93;;
549;SDS011;20066;48.764;9.176;2023-05-27T00:40:09;15.00;;;5.67;;
549;SDS011;20066;48.764;9.176;2023-05-27T00:42:38;15.23;;;5.00;;
549;SDS011;20066;48.764;9.176;2023-05-27T00:45:07;11.63;;;4.63;;
549;SDS011;20066;48.764;9.176;2023-05-27T00:47:36;13.43;;;6.00;;
549;SDS011;20066;48.764;9.176;2023-05-27T00:50:04;13.73;;;5.10;;
549;SDS011;20066;48.764;9.176;2023-05-27T00:52:34;15.27;;;5.70;;
549;SDS011;20066;48.764;9.176;2023-05-27T00:55:04;14.73;;;5.07;;
549;SDS011;20066;48.764;9.176;2023-05-27T00:57:33;13.37;;;5.90;;
549;SDS011;20066;48.764;9.176;2023-05-27T01:00:02;13.60;;;4.73;;
549;SDS011;20066;48.764;9.176;2023-05-27T01:02:33;13.10;;;4.10;;
549;SDS011;20066;48.764;9.176;2023-05-27T01:05:01;12.20;;;4.50;;
549;SDS011;20066;48.764;9.176;2023-05-27T01:07:29;12.80;;;4.07;;
549;SDS011;20066;48.764;9.176;2023-05-27T01:10:10;17.53;;;5.00;;
549;SDS011;20066;48.764;9.176;2023-05-27T01:12:44;18.10;;;5.07;;
549;SDS011;20066;48.764;9.176;2023-05-27T01:15:16;12.33;;;5.27;;
549;SDS011;20066;48.764;9.176;2023-05-27T01:17:46;13.10;;;4.93;;
549;SDS011;20066;48.764;9.176;2023-05-27T01:20:15;15.17;;;5.97;;
549;SDS011;20066;48.764;9.176;2023-05-27T01:22:45;14.57;;;4.73;;
549;SDS011;20066;48.764;9.176;2023-05-27T01:25:18;11.80;;;5.30;;
549;SDS011;20066;48.764;9.176;2023-05-27T01:27:46;12.50;;;5.30;;
549;SDS011;20066;48.764;9.176;2023-05-27T01:30:14;17.50;;;5.20;;
549;SDS011;20066;48.764;9.176;2023-05-27T01:32:43;15.93;;;5.30;;
549;SDS011;20066;48.764;9.176;2023-05-27T01:35:19;11.43;;;4.87;;
549;SDS011;20066;48.764;9.176;2023-05-27T01:37:52;12.67;;;5.13;;
549;SDS011;20066;48.764;9.176;2023-05-27T01:40:24;11.33;;;5.03;;
549;SDS011;20066;48.764;9.176;2023-05-27T01:42:54;13.53;;;5.33;;
549;SDS011;20066;48.764;9.176;2023-05-27T01:45:24;14.73;;;4.83;;
549;SDS011;20066;48.764;9.176;2023-05-27T01:47:52;12.23;;;4.97;;
549;SDS011;20066;48.764;9.176;2023-05-27T01:50:20;11.67;;;5.27;;
549;SDS011;20066;48.764;9.176;2023-05-27T01:52:48;8.90;;;4.57;;
549;SDS011;20066;48.764;9.176;2023-05-27T01:55:17;11.13;;;5.43;;
549;SDS011;20066;48.764;9.176;2023-05-27T01:57:45;12.77;;;5.30;;
549;SDS011;20066;48.764;9.176;2023-05-27T02:00:13;9.57;;;4.80;;
549;SDS011;20066;48.764;9.176;2023-05-27T02:02:42;11.20;;;4.40;;
549;SDS011;20066;48.764;9.176;2023-05-27T02:05:10;10.63;;;4.70;;
549;SDS011;20066;48.764;9.176;2023-05-27T02:07:37;13.17;;;5.40;;
549;SDS011;20066;48.764;9.176;2023-05-27T02:10:06;14.13;;;4.87;;
549;SDS011;20066;48.764;9.176;2023-05-27T02:12:36;19.33;;;4.30;;
549;SDS011;20066;48.764;9.176;2023-05-27T02:15:04;14.10;;;4.40;;
549;SDS011;20066;48.764;9.176;2023-05-27T02:17:32;11.77;;;3.80;;
549;SDS011;20066;48.764;9.176;2023-05-27T02:20:00;11.70;;;4.37;;
549;SDS011;20066;48.764;9.176;2023-05-27T02:22:28;16.77;;;5.10;;
549;SDS011;20066;48.764;9.176;2023-05-27T02:24:56;12.23;;;3.93;;
549;SDS011;20066;48.764;9.176;2023-05-27T02:27:23;11.57;;;4.40;;
549;SDS011;20066;48.764;9.176;2023-05-27T02:29:53;13.87;;;4.67;;
549;SDS011;20066;48.764;9.176;2023-05-27T02:32:20;13.90;;;4.30;;
549;SDS011;20066;48.764;9.176;2023-05-27T02:34:48;13.67;;;4.27;;
549;SDS011;20066;48.764;9.176;2023-05-27T02:37:17;18.10;;;4.20;;
549;SDS011;20066;48.764;9.176;2023-05-27T02:39:44;8.97;;;3.50;;
549;SDS011;20066;48.764;9.176;2023-05-27T02:42:12;14.33;;;3.93;;
549;SDS011;20066;48.764;9.176;2023-05-27T02:44:40;13.60;;;4.73;;
549;SDS011;20066;48.764;9.176;2023-05-27T02:47:09;12.87;;;4.53;;
549;SDS011;20066;48.764;9.176;2023-05-27T02:49:37;25.33;;;4.80;;
549;SDS011;20066;48.764;9.176;2023-05-27T02:52:05;16.97;;;4.70;;
549;SDS011;20066;48.764;9.176;2023-05-27T02:54:33;10.43;;;4.00;;
549;SDS011;20066;48.764;9.176;2023-05-27T02:57:01;10.00;;;4.13;;
549;SDS011;20066;48.764;9.176;2023-05-27T02:59:29;9.70;;;4.10;;
549;SDS011;20066;48.764;9.176;2023-05-27T03:01:56;15.83;;;4.37;;
549;SDS011;20066;48.764;9.176;2023-05-27T03:04:26;13.93;;;4.53;;
549;SDS011;20066;48.764;9.176;2023-05-27T03:06:54;16.57;;;4.47;;
549;SDS011;20066;48.764;9.176;2023-05-27T03:09:22;16.63;;;4.97;;
549;SDS011;20066;48.764;9.176;2023-05-27T03:11:50;16.10;;;4.20;;
549;SDS011;20066;48.764;9.176;2023-05-27T03:14:18;14.73;;;4.20;;
549;SDS011;20066;48.764;9.176;2023-05-27T03:16:46;12.23;;;4.03;;
549;SDS011;20066;48.764;9.176;2023-05-27T03:19:14;12.57;;;4.70;;
549;SDS011;20066;48.764;9.176;2023-05-27T03:21:43;10.80;;;4.40;;
549;SDS011;20066;48.764;9.176;2023-05-27T03:24:11;16.40;;;4.90;;
549;SDS011;20066;48.764;9.176;2023-05-27T03:26:39;19.50;;;4.50;;
549;SDS011;20066;48.764;9.176;2023-05-27T03:29:07;9.73;;;4.00;;
549;SDS011;20066;48.764;9.176;2023-05-27T03:31:34;16.03;;;4.83;;
549;SDS011;20066;48.764;9.176;2023-05-27T03:34:02;25.10;;;4.90;;
549;SDS011;20066;48.764;9.176;2023-05-27T03:36:30;13.63;;;4.80;;
549;SDS011;20066;48.764;9.176;2023-05-27T03:38:59;13.33;;;4.30;;
549;SDS011;20066;48.764;9.176;2023-05-27T03:41:27;11.70;;;4.00;;
549;SDS011;20066;48.764;9.176;2023-05-27T03:43:54;19.73;;;4.60;;
549;SDS011;20066;48.764;9.176;2023-05-27T03:46:22;12.40;;;4.67;;
549;SDS011;20066;48.764;9.176;2023-05-27T03:48:50;13.97;;;4.50;;
549;SDS011;20066;48.764;9.176;2023-05-27T03:51:19;21.53;;;4.87;;
549;SDS011;20066;48.764;9.176;2023-05-27T03:53:47;12.97;;;4.97;;
549;SDS011;20066;48.764;9.176;2023-05-27T03:56:16;12.73;;;4.70;;
549;SDS011;20066;48.764;9.176;2023-05-27T03:58:44;15.07;;;4.97;;
549;SDS011;20066;48.764;9.176;2023-05-27T04:01:12;9.50;;;4.67;;
549;SDS011;20066;48.764;9.176;2023-05-27T04:03:40;15.03;;;4.13;;
549;SDS011;20066;48.764;9.176;2023-05-27T04:06:08;14.93;;;4.93;;
549;SDS011;20066;48.764;9.176;2023-05-27T04:08:36;10.90;;;4.33;;
549;SDS011;20066;48.764;9.176;2023-05-27T04:11:05;13.50;;;4.40;;
549;SDS011;20066;48.764;9.176;2023-05-27T04:13:34;15.20;;;4.20;;
549;SDS011;20066;48.764;9.176;2023-05-27T04:16:02;14.80;;;4.70;;
549;SDS011;20066;48.764;9.176;2023-05-27T04:18:30;14.63;;;4.67;;
549;SDS011;20066;48.764;9.176;2023-05-27T04:20:58;13.13;;;5.17;;
549;SDS011;20066;48.764;9.176;2023-05-27T04:23:26;16.33;;;5.53;;
549;SDS011;20066;48.764;9.176;2023-05-27T04:25:54;14.60;;;3.93;;
549;SDS011;20066;48.764;9.176;2023-05-27T04:28:22;17.77;;;4.30;;
549;SDS011;20066;48.764;9.176;2023-05-27T04:30:51;15.80;;;5.00;;
549;SDS011;20066;48.764;9.176;2023-05-27T04:33:19;10.03;;;3.70;;
549;SDS011;20066;48.764;9.176;2023-05-27T04:35:47;14.67;;;4.90;;
549;SDS011;20066;48.764;9.176;2023-05-27T04:38:16;12.00;;;4.93;;
549;SDS011;20066;48.764;9.176;2023-05-27T04:40:48;18.43;;;4.60;;
549;SDS011;20066;48.764;9.176;2023-05-27T04:43:18;14.10;;;4.27;;
549;SDS011;20066;48.764;9.176;2023-05-27T04:45:47;15.90;;;4.70;;
549;SDS011;20066;48.764;9.176;2023-05-27T04:48:16;15.50;;;4.33;;
549;SDS011;20066;48.764;9.176;2023-05-27T04:50:44;25.60;;;4.80;;
549;SDS011;20066;48.764;9.176;2023-05-27T04:53:12;15.30;;;4.13;;
549;SDS011;20066;48.764;9.176;2023-05-27T04:55:40;23.13;;;4.60;;
549;SDS011;20066;48.764;9.176;2023-05-27T04:58:08;11.73;;;4.40;;
549;SDS011;20066;48.764;9.176;2023-05-27T05:00:35;22.80;;;5.27;;
549;SDS011;20066;48.764;9.176;2023-05-27T05:03:05;27.70;;;4.40;;
549;SDS011;20066;48.764;9.176;2023-05-27T05:05:35;18.37;;;3.90;;
549;SDS011;20066;48.764;9.176;2023-05-27T05:08:06;13.17;;;4.30;;
549;SDS011;20066;48.764;9.176;2023-05-27T05:10:33;16.60;;;4.97;;
549;SDS011;20066;48.764;9.176;2023-05-27T05:13:01;16.20;;;4.30;;
549;SDS011;20066;48.764;9.176;2023-05-27T05:15:29;14.50;;;4.50;;
549;SDS011;20066;48.764;9.176;2023-05-27T05:17:58;29.83;;;5.80;;
549;SDS011;20066;48.764;9.176;2023-05-27T05:20:27;16.87;;;5.60;;
549;SDS011;20066;48.764;9.176;2023-05-27T05:22:56;13.97;;;4.27;;
549;SDS011;20066;48.764;9.176;2023-05-27T05:25:24;14.87;;;4.60;;
549;SDS011;20066;48.764;9.176;2023-05-27T05:27:52;10.70;;;4.67;;
549;SDS011;20066;48.764;9.176;2023-05-27T05:30:21;16.27;;;4.33;;
549;SDS011;20066;48.764;9.176;2023-05-27T05:32:48;16.67;;;5.40;;
549;SDS011;20066;48.764;9.176;2023-05-27T05:35:17;17.97;;;4.67;;
549;SDS011;20066;48.764;9.176;2023-05-27T05:37:44;18.60;;;4.87;;
549;SDS011;20066;48.764;9.176;2023-05-27T05:40:13;12.30;;;4.00;;
549;SDS011;20066;48.764;9.176;2023-05-27T05:42:41;19.30;;;4.97;;
549;SDS011;20066;48.764;9.176;2023-05-27T05:45:09;21.53;;;5.10;;
549;SDS011;20066;48.764;9.176;2023-05-27T05:47:37;20.13;;;5.60;;
549;SDS011;20066;48.764;9.176;2023-05-27T05:50:05;12.97;;;4.40;;
549;SDS011;20066;48.764;9.176;2023-05-27T05:52:34;13.63;;;4.50;;
549;SDS011;20066;48.764;9.176;2023-05-27T05:55:01;25.87;;;5.37;;
549;SDS011;20066;48.764;9.176;2023-05-27T05:57:31;15.30;;;5.20;;
549;SDS011;20066;48.764;9.176;2023-05-27T06:00:01;20.63;;;5.17;;
549;SDS011;20066;48.764;9.176;2023-05-27T06:02:30;21.00;;;5.00;;
549;SDS011;20066;48.764;9.176;2023-05-27T06:04:58;12.00;;;4.03;;
549;SDS011;20066;48.764;9.176;2023-05-27T06:07:26;18.20;;;5.53;;
549;SDS011;20066;48.764;9.176;2023-05-27T06:09:54;11.73;;;4.30;;
549;SDS011;20066;48.764;9.176;2023-05-27T06:12:21;14.73;;;4.30;;
549;SDS011;20066;48.764;9.176;2023-05-27T06:14:52;20.97;;;4.70;;
549;SDS011;20066;48.764;9.176;2023-05-27T06:17:20;19.07;;;4.77;;
549;SDS011;20066;48.764;9.176;2023-05-27T06:19:47;17.53;;;4.83;;
549;SDS011;20066;48.764;9.176;2023-05-27T06:22:15;16.17;;;5.60;;
549;SDS011;20066;48.764;9.176;2023-05-27T06:24:43;15.80;;;4.47;;
549;SDS011;20066;48.764;9.176;2023-05-27T06:27:11;18.57;;;4.90;;
549;SDS011;20066;48.764;9.176;2023-05-27T06:29:39;19.70;;;5.20;;
549;SDS011;20066;48.764;9.176;2023-05-27T06:32:08;17.87;;;4.73;;
549;SDS011;20066;48.764;9.176;2023-05-27T06:34:36;15.57;;;4.80;;
549;SDS011;20066;48.764;9.176;2023-05-27T06:37:03;15.53;;;4.87;;
549;SDS011;20066;48.764;9.176;2023-05-27T06:39:32;14.53;;;4.90;;
549;SDS011;20066;48.764;9.176;2023-05-27T06:41:59;11.70;;;4.30;;
549;SDS011;20066;48.764;9.176;2023-05-27T06:44:27;18.03;;;5.97;;
549;SDS011;20066;48.764;9.176;2023-05-27T06:46:55;17.63;;;4.23;;
549;SDS011;20066;48.764;9.176;2023-05-27T06:49:24;15.50;;;5.07;;
549;SDS011;20066;48.764;9.176;2023-05-27T06:51:52;21.30;;;4.97;;
549;SDS011;20066;48.764;9.176;2023-05-27T06:54:20;12.37;;;4.37;;
549;SDS011;20066;48.764;9.176;2023-05-27T06:56:48;18.63;;;4.83;;
549;SDS011;20066;48.764;9.176;2023-05-27T06:59:16;14.87;;;4.93;;
549;SDS011;20066;48.764;9.176;2023-05-27T07:01:43;17.30;;;5.77;;
549;SDS011;20066;48.764;9.176;2023-05-27T07:04:12;19.87;;;4.37;;
549;SDS011;20066;48.764;9.176;2023-05-27T07:06:42;12.70;;;4.70;;
549;SDS011;20066;48.764;9.176;2023-05-27T07:09:10;14.97;;;4.97;;
549;SDS011;20066;48.764;9.176;2023-05-27T07:11:38;14.97;;;4.73;;
549;SDS011;20066;48.764;9.176;2023-05-27T07:14:06;11.67;;;5.00;;
549;SDS011;20066;48.764;9.176;2023-05-27T07:16:35;19.27;;;5.30;;
549;SDS011;20066;48.764;9.176;2023-05-27T07:19:03;17.13;;;5.20;;
549;SDS011;20066;48.764;9.176;2023-05-27T07:21:33;13.87;;;4.43;;
549;SDS011;20066;48.764;9.176;2023-05-27T07:24:02;16.73;;;5.00;;
549;SDS011;20066;48.764;9.176;2023-05-27T07:26:30;21.57;;;5.57;;
549;SDS011;20066;48.764;9.176;2023-05-27T07:28:58;23.77;;;4.63;;
549;SDS011;20066;48.764;9.176;2023-05-27T07:31:27;16.03;;;4.83;;
549;SDS011;20066;48.764;9.176;2023-05-27T07:33:56;20.53;;;4.60;;
549;SDS011;20066;48.764;9.176;2023-05-27T07:36:23;22.33;;;5.40;;
549;SDS011;20066;48.764;9.176;2023-05-27T07:38:51;19.43;;;4.90;;
549;SDS011;20066;48.764;9.176;2023-05-27T07:41:20;12.77;;;5.00;;
549;SDS011;20066;48.764;9.176;2023-05-27T07:43:48;17.00;;;4.70;;
549;SDS011;20066;48.764;9.176;2023-05-27T07:46:16;25.17;;;5.27;;
549;SDS011;20066;48.764;9.176;2023-05-27T07:48:44;19.77;;;5.30;;
549;SDS011;20066;48.764;9.176;2023-05-27T07:51:11;14.27;;;5.03;;
549;SDS011;20066;48.764;9.176;2023-05-27T07:53:39;19.60;;;5.73;;
549;SDS011;20066;48.764;9.176;2023-05-27T07:56:07;20.27;;;5.43;;
549;SDS011;20066;48.764;9.176;2023-05-27T07:58:36;11.67;;;4.50;;
549;SDS011;20066;48.764;9.176;2023-05-27T08:01:04;15.63;;;4.93;;
549;SDS011;20066;48.764;9.176;2023-05-27T08:03:32;14.77;;;5.03;;
549;SDS011;20066;48.764;9.176;2023-05-27T08:06:00;16.00;;;5.00;;
549;SDS011;20066;48.764;9.176;2023-05-27T08:08:28;14.37;;;5.10;;
549;SDS011;20066;48.764;9.176;2023-05-27T08:10:57;20.03;;;5.30;;
549;SDS011;20066;48.764;9.176;2023-05-27T08:13:25;19.50;;;5.50;;
549;SDS011;20066;48.764;9.176;2023-05-27T08:15:57;14.10;;;5.67;;
549;SDS011;20066;48.764;9.176;2023-05-27T08:18:25;16.67;;;5.57;;
549;SDS011;20066;48.764;9.176;2023-05-27T08:20:53;12.40;;;5.57;;
549;SDS011;20066;48.764;9.176;2023-05-27T08:23:21;12.30;;;5.10;;
549;SDS011;20066;48.764;9.176;2023-05-27T08:25:49;16.00;;;5.90;;
549;SDS011;20066;48.764;9.176;2023-05-27T08:28:17;19.97;;;6.33;;
549;SDS011;20066;48.764;9.176;2023-05-27T08:30:45;15.20;;;5.90;;
549;SDS011;20066;48.764;9.176;2023-05-27T08:33:15;16.70;;;5.70;;
549;SDS011;20066;48.764;9.176;2023-05-27T08:35:43;14.37;;;5.93;;
549;SDS011;20066;48.764;9.176;2023-05-27T08:38:10;17.80;;;5.50;;
549;SDS011;20066;48.764;9.176;2023-05-27T08:40:38;12.07;;;5.13;;
549;SDS011;20066;48.764;9.176;2023-05-27T08:43:06;13.50;;;5.60;;
549;SDS011;20066;48.764;9.176;2023-05-27T08:45:34;12.83;;;5.67;;
549;SDS011;20066;48.764;9.176;2023-05-27T08:48:04;23.00;;;5.43;;
549;SDS011;20066;48.764;9.176;2023-05-27T08:50:35;14.50;;;5.03;;
549;SDS011;20066;48.764;9.176;2023-05-27T08:53:03;13.73;;;5.77;;
549;SDS011;20066;48.764;9.176;2023-05-27T08:55:31;13.20;;;5.17;;
549;SDS011;20066;48.764;9.176;2023-05-27T08:58:00;20.40;;;6.43;;
549;SDS011;20066;48.764;9.176;2023-05-27T09:00:30;14.67;;;5.53;;
549;SDS011;20066;48.764;9.176;2023-05-27T09:02:58;16.60;;;5.93;;
549;SDS011;20066;48.764;9.176;2023-05-27T09:05:26;15.53;;;5.30;;
549;SDS011;20066;48.764;9.176;2023-05-27T09:07:56;14.40;;;5.03;;
549;SDS011;20066;48.764;9.176;2023-05-27T09:10:34;16.23;;;5.40;;
549;SDS011;20066;48.764;9.176;2023-05-27T09:13:03;12.93;;;5.90;;
549;SDS011;20066;48.764;9.176;2023-05-27T09:15:31;12.90;;;5.37;;
549;SDS011;20066;48.764;9.176;2023-05-27T09:18:01;14.57;;;5.70;;
549;SDS011;20066;48.764;9.176;2023-05-27T09:20:29;13.37;;;5.40;;
549;SDS011;20066;48.764;9.176;2023-05-27T09:22:59;16.03;;;5.77;;
549;SDS011;20066;48.764;9.176;2023-05-27T09:25:28;12.57;;;6.17;;
549;SDS011;20066;48.764;9.176;2023-05-27T09:27:56;12.20;;;5.47;;
549;SDS011;20066;48.764;9.176;2023-05-27T09:30:24;19.87;;;6.50;;
549;SDS011;20066;48.764;9.176;2023-05-27T09:32:59;14.90;;;5.17;;
549;SDS011;20066;48.764;9.176;2023-05-27T09:35:28;21.77;;;5.70;;
549;SDS011;20066;48.764;9.176;2023-05-27T09:38:06;13.53;;;6.30;;
549;SDS011;20066;48.764;9.176;2023-05-27T09:40:35;14.20;;;5.20;;
549;SDS011;20066;48.764;9.176;2023-05-27T09:43:04;14.87;;;6.00;;
549;SDS011;20066;48.764;9.176;2023-05-27T09:45:33;12.60;;;5.60;;
549;SDS011;20066;48.764;9.176;2023-05-27T09:48:01;17.23;;;6.10;;
549;SDS011;20066;48.764;9.176;2023-05-27T09:50:30;14.97;;;5.70;;
549;SDS011;20066;48.764;9.176;2023-05-27T09:52:59;17.73;;;6.03;;
549;SDS011;20066;48.764;9.176;2023-05-27T09:55:38;13.83;;;5.77;;
549;SDS011;20066;48.764;9.176;2023-05-27T09:58:07;17.20;;;6.60;;
549;SDS011;20066;48.764;9.176;2023-05-27T10:00:37;21.40;;;6.30;;
549;SDS011;20066;48.764;9.176;2023-05-27T10:03:08;18.27;;;6.30;;
549;SDS011;20066;48.764;9.176;2023-05-27T10:05:38;16.17;;;6.10;;
549;SDS011;20066;48.764;9.176;2023-05-27T10:08:07;17.80;;;6.57;;
549;SDS011;20066;48.764;9.176;2023-05-27T10:10:51;12.00;;;6.20;;
549;SDS011;20066;48.764;9.176;2023-05-27T10:13:21;11.83;;;5.70;;
549;SDS011;20066;48.764;9.176;2023-05-27T10:15:50;12.70;;;6.07;;
549;SDS011;20066;48.764;9.176;2023-05-27T10:18:22;14.90;;;7.10;;
549;SDS011;20066;48.764;9.176;2023-05-27T10:20:51;15.43;;;5.50;;
549;SDS011;20066;48.764;9.176;2023-05-27T10:23:21;10.67;;;5.87;;
549;SDS011;20066;48.764;9.176;2023-05-27T10:25:55;14.30;;;6.73;;
549;SDS011;20066;48.764;9.176;2023-05-27T10:28:28;11.47;;;5.47;;
549;SDS011;20066;48.764;9.176;2023-05-27T10:31:04;14.00;;;6.20;;
549;SDS011;20066;48.764;9.176;2023-05-27T10:33:34;13.77;;;6.20;;
549;SDS011;20066;48.764;9.176;2023-05-27T10:36:03;17.90;;;6.27;;
549;SDS011;20066;48.764;9.176;2023-05-27T10:38:33;13.30;;;6.23;;
549;SDS011;20066;48.764;9.176;2023-05-27T10:41:04;15.27;;;6.10;;
549;SDS011;20066;48.764;9.176;2023-05-27T10:43:33;12.70;;;5.30;;
549;SDS011;20066;48.764;9.176;2023-05-27T10:46:07;14.33;;;5.97;;
549;SDS011;20066;48.764;9.176;2023-05-27T10:48:36;12.63;;;5.73;;
549;SDS011;20066;48.764;9.176;2023-05-27T10:51:06;18.10;;;6.47;;
549;SDS011;20066;48.764;9.176;2023-05-27T10:53:35;20.90;;;6.90;;
549;SDS011;20066;48.764;9.176;2023-05-27T10:56:05;11.47;;;6.07;;
549;SDS011;20066;48.764;9.176;2023-05-27T10:58:35;12.93;;;6.40;;
549;SDS011;20066;48.764;9.176;2023-05-27T11:01:07;19.10;;;6.30;;
549;SDS011;20066;48.764;9.176;2023-05-27T11:03:41;15.40;;;6.80;;
549;SDS011;20066;48.764;9.176;2023-05-27T11:06:11;15.03;;;6.40;;
549;SDS011;20066;48.764;9.176;2023-05-27T11:08:41;10.73;;;5.17;;
549;SDS011;20066;48.764;9.176;2023-05-27T11:11:12;11.60;;;5.47;;
549;SDS011;20066;48.764;9.176;2023-05-27T11:13:41;15.43;;;5.50;;
549;SDS011;20066;48.764;9.176;2023-05-27T11:16:13;8.80;;;5.33;;
549;SDS011;20066;48.764;9.176;2023-05-27T11:18:43;12.53;;;6.53;;
549;SDS011;20066;48.764;9.176;2023-05-27T11:21:13;14.10;;;6.20;;
549;SDS011;20066;48.764;9.176;2023-05-27T11:23:44;11.03;;;5.73;;
549;SDS011;20066;48.764;9.176;2023-05-27T11:26:15;10.67;;;6.20;;
549;SDS011;20066;48.764;9.176;2023-05-27T11:28:44;10.47;;;5.47;;
549;SDS011;20066;48.764;9.176;2023-05-27T11:31:16;13.23;;;5.40;;
549;SDS011;20066;48.764;9.176;2023-05-27T11:33:46;12.43;;;5.57;;
549;SDS011;20066;48.764;9.176;2023-05-27T11:36:18;8.20;;;5.07;;
549;SDS011;20066;48.764;9.176;2023-05-27T11:38:50;11.70;;;5.93;;
549;SDS011;20066;48.764;9.176;2023-05-27T11:41:21;18.30;;;6.03;;
549;SDS011;20066;48.764;9.176;2023-05-27T11:43:50;16.83;;;6.10;;
549;SDS011;20066;48.764;9.176;2023-05-27T11:46:20;10.77;;;5.50;;
549;SDS011;20066;48.764;9.176;2023-05-27T11:48:48;15.27;;;5.50;;
549;SDS011;20066;48.764;9.176;2023-05-27T11:51:16;10.90;;;5.63;;
549;SDS011;20066;48.764;9.176;2023-05-27T11:53:45;14.30;;;5.00;;
549;SDS011;20066;48.764;9.176;2023-05-27T11:56:13;12.17;;;6.30;;
549;SDS011;20066;48.764;9.176;2023-05-27T11:58:43;9.23;;;5.47;;
549;SDS011;20066;48.764;9.176;2023-05-27T12:01:11;13.03;;;5.80;;
549;SDS011;20066;48.764;9.176;2023-05-27T12:03:39;15.40;;;5.83;;
549;SDS011;20066;48.764;9.176;2023-05-27T12:06:08;9.37;;;5.10;;
549;SDS011;20066;48.764;9.176;2023-05-27T12:08:37;12.13;;;5.97;;
549;SDS011;20066;48.764;9.176;2023-05-27T12:11:05;13.57;;;6.13;;
549;SDS011;20066;48.764;9.176;2023-05-27T12:13:33;13.80;;;6.30;;
549;SDS011;20066;48.764;9.176;2023-05-27T12:16:03;14.53;;;6.37;;
549;SDS011;20066;48.764;9.176;2023-05-27T12:18:32;14.73;;;6.73;;
549;SDS011;20066;48.764;9.176;2023-05-27T12:21:00;11.97;;;5.50;;
549;SDS011;20066;48.764;9.176;2023-05-27T12:23:28;23.03;;;6.57;;
549;SDS011;20066;48.764;9.176;2023-05-27T12:25:56;12.70;;;6.10;;
549;SDS011;20066;48.764;9.176;2023-05-27T12:28:23;12.70;;;6.00;;
549;SDS011;20066;48.764;9.176;2023-05-27T12:30:52;14.23;;;5.80;;
549;SDS011;20066;48.764;9.176;2023-05-27T12:33:22;17.73;;;6.33;;
549;SDS011;20066;48.764;9.176;2023-05-27T12:35:50;11.40;;;5.80;;
549;SDS011;20066;48.764;9.176;2023-05-27T12:38:18;15.20;;;6.20;;
549;SDS011;20066;48.764;9.176;2023-05-27T12:40:46;18.37;;;6.17;;
549;SDS011;20066;48.764;9.176;2023-05-27T12:43:15;14.63;;;6.10;;
549;SDS011;20066;48.764;9.176;2023-05-27T12:45:44;9.90;;;5.53;;
549;SDS011;20066;48.764;9.176;2023-05-27T12:48:13;13.50;;;5.73;;
549;SDS011;20066;48.764;9.176;2023-05-27T12:50:43;17.10;;;6.37;;
549;SDS011;20066;48.764;9.176;2023-05-27T12:53:11;11.63;;;5.80;;
549;SDS011;20066;48.764;9.176;2023-05-27T12:55:39;13.90;;;6.23;;
549;SDS011;20066;48.764;9.176;2023-05-27T12:58:09;20.77;;;7.03;;
549;SDS011;20066;48.764;9.176;2023-05-27T13:00:37;14.07;;;6.20;;
549;SDS011;20066;48.764;9.176;2023-05-27T13:03:05;13.43;;;6.57;;
549;SDS011;20066;48.764;9.176;2023-05-27T13:05:36;12.10;;;6.07;;
549;SDS011;20066;48.764;9.176;2023-05-27T13:08:06;12.73;;;6.07;;
549;SDS011;20066;48.764;9.176;2023-05-27T13:10:34;15.97;;;5.97;;
549;SDS011;20066;48.764;9.176;2023-05-27T13:13:02;14.53;;;6.90;;
549;SDS011;20066;48.764;9.176;2023-05-27T13:15:30;12.53;;;5.97;;
549;SDS011;20066;48.764;9.176;2023-05-27T13:17:59;14.53;;;5.37;;
549;SDS011;20066;48.764;9.176;2023-05-27T13:20:29;12.80;;;5.83;;
549;SDS011;20066;48.764;9.176;2023-05-27T13:22:57;13.20;;;6.07;;
549;SDS011;20066;48.764;9.176;2023-05-27T13:25:29;15.23;;;6.90;;
549;SDS011;20066;48.764;9.176;2023-05-27T13:27:57;14.73;;;6.20;;
549;SDS011;20066;48.764;9.176;2023-05-27T13:30:25;12.17;;;5.80;;
549;SDS011;20066;48.764;9.176;2023-05-27T13:32:54;13.10;;;6.07;;
549;SDS011;20066;48.764;9.176;2023-05-27T13:35:22;14.87;;;5.90;;
549;SDS011;20066;48.764;9.176;2023-05-27T13:37:50;15.13;;;7.10;;
549;SDS011;20066;48.764;9.176;2023-05-27T13:40:19;14.73;;;6.33;;
549;SDS011;20066;48.764;9.176;2023-05-27T13:42:48;12.13;;;6.23;;
549;SDS011;20066;48.764;9.176;2023-05-27T13:45:17;11.83;;;5.20;;
549;SDS011;20066;48.764;9.176;2023-05-27T13:47:45;17.90;;;5.60;;
549;SDS011;20066;48.764;9.176;2023-05-27T13:50:13;12.37;;;5.37;;
549;SDS011;20066;48.764;9.176;2023-05-27T13:52:41;12.30;;;5.80;;
549;SDS011;20066;48.764;9.176;2023-05-27T13:55:10;8.93;;;4.40;;
549;SDS011;20066;48.764;9.176;2023-05-27T13:57:39;9.33;;;4.87;;
549;SDS011;20066;48.764;9.176;2023-05-27T14:00:09;9.13;;;5.10;;
549;SDS011;20066;48.764;9.176;2023-05-27T14:02:38;11.97;;;5.80;;
549;SDS011;20066;48.764;9.176;2023-05-27T14:05:06;18.43;;;5.67;;
549;SDS011;20066;48.764;9.176;2023-05-27T14:07:38;9.90;;;5.40;;
549;SDS011;20066;48.764;9.176;2023-05-27T14:10:08;11.60;;;5.60;;
549;SDS011;20066;48.764;9.176;2023-05-27T14:12:37;9.13;;;4.50;;
549;SDS011;20066;48.764;9.176;2023-05-27T14:15:05;13.43;;;5.10;;
549;SDS011;20066;48.764;9.176;2023-05-27T14:17:35;11.70;;;4.37;;
549;SDS011;20066;48.764;9.176;2023-05-27T14:20:03;12.03;;;5.27;;
549;SDS011;20066;48.764;9.176;2023-05-27T14:22:37;14.63;;;5.47;;
549;SDS011;20066;48.764;9.176;2023-05-27T14:25:05;10.10;;;4.57;;
549;SDS011;20066;48.764;9.176;2023-05-27T14:27:34;13.33;;;4.80;;
549;SDS011;20066;48.764;9.176;2023-05-27T14:30:01;13.27;;;5.23;;
549;SDS011;20066;48.764;9.176;2023-05-27T14:32:30;12.10;;;5.17;;
549;SDS011;20066;48.764;9.176;2023-05-27T14:34:59;10.73;;;4.50;;
549;SDS011;20066;48.764;9.176;2023-05-27T14:37:27;9.23;;;4.50;;
549;SDS011;20066;48.764;9.176;2023-05-27T14:39:55;11.77;;;4.50;;
549;SDS011;20066;48.764;9.176;2023-05-27T14:42:23;10.80;;;4.83;;
549;SDS011;20066;48.764;9.176;2023-05-27T14:44:51;8.60;;;4.10;;
549;SDS011;20066;48.764;9.176;2023-05-27T14:47:18;9.83;;;4.03;;
549;SDS011;20066;48.764;9.176;2023-05-27T14:49:48;10.00;;;4.93;;
549;SDS011;20066;48.764;9.176;2023-05-27T14:52:17;9.73;;;4.33;;
549;SDS011;20066;48.764;9.176;2023-05-27T14:54:45;12.70;;;4.17;;
549;SDS011;20066;48.764;9.176;2023-05-27T14:57:13;8.30;;;3.87;;
549;SDS011;20066;48.764;9.176;2023-05-27T14:59:41;14.23;;;4.50;;
549;SDS011;20066;48.764;9.176;2023-05-27T15:02:11;8.93;;;3.90;;
549;SDS011;20066;48.764;9.176;2023-05-27T15:04:39;10.10;;;3.90;;
549;SDS011;20066;48.764;9.176;2023-05-27T15:07:06;8.17;;;3.63;;
549;SDS011;20066;48.764;9.176;2023-05-27T15:09:36;9.00;;;4.27;;
549;SDS011;20066;48.764;9.176;2023-05-27T15:12:04;9.17;;;4.03;;